createdAt,value
2023-01-06T00:01:20.145Z,80.76
2023-01-06T00:03:50.557Z,81.38
2023-01-06T00:06:19.567Z,81.54
2023-01-06T00:08:49.231Z,82.62
2023-01-06T00:11:18.741Z,91.40
2023-01-06T00:13:47.127Z,94.50
2023-01-06T00:16:17.048Z,92.80
2023-01-06T00:18:45.663Z,98.45
2023-01-06T00:21:15.665Z,95.59
2023-01-06T00:23:44.216Z,99.26
2023-01-06T00:26:14.095Z,96.13
2023-01-06T00:28:42.453Z,95.28
2023-01-06T00:31:12.637Z,89.97
2023-01-06T00:33:40.993Z,87.12
2023-01-06T00:36:10.700Z,87.09
2023-01-06T00:38:39.699Z,82.49
2023-01-06T00:41:29.479Z,82.47
2023-01-06T00:44:00.153Z,80.77
2023-01-06T00:46:29.966Z,80.15
2023-01-06T00:49:07.331Z,80.26
2023-01-06T00:51:37.247Z,80.41
2023-01-06T00:54:06.082Z,88.94
2023-01-06T00:56:36.690Z,86.81
2023-01-06T00:59:07.146Z,87.59
2023-01-06T01:01:36.143Z,87.52
2023-01-06T01:04:04.879Z,85.56
2023-01-06T01:06:33.850Z,84.68
2023-01-06T01:09:02.684Z,85.33
2023-01-06T01:11:48.592Z,85.32
2023-01-06T01:14:19.836Z,81.28
2023-01-06T01:16:48.720Z,79.79
2023-01-06T01:19:17.212Z,80.43
2023-01-06T01:21:45.524Z,81.27
2023-01-06T01:24:13.825Z,82.63
2023-01-06T01:26:42.298Z,84.59
2023-01-06T01:29:13.130Z,88.31
2023-01-06T01:31:43.103Z,92.74
2023-01-06T01:34:12.998Z,88.45
2023-01-06T01:36:42.053Z,84.82
2023-01-06T01:39:11.984Z,85.26
2023-01-06T01:41:40.389Z,87.14
2023-01-06T01:44:41.737Z,89.53
2023-01-06T01:47:13.222Z,82.82
2023-01-06T01:49:43.715Z,81.30
2023-01-06T01:52:13.198Z,80.17
2023-01-06T01:54:42.432Z,78.41
2023-01-06T01:57:14.398Z,80.80
2023-01-06T01:59:44.425Z,84.09
2023-01-06T02:02:16.107Z,92.79
2023-01-06T02:04:50.390Z,97.31
2023-01-06T02:07:19.361Z,100.00
2023-01-06T02:09:57.421Z,89.68
2023-01-06T02:12:25.696Z,86.15
2023-01-06T02:14:53.991Z,88.47
2023-01-06T02:17:48.446Z,97.10
2023-01-06T02:20:38.165Z,88.10
2023-01-06T02:23:52.712Z,85.91
2023-01-06T02:27:02.537Z,83.48
2023-01-06T02:30:12.355Z,83.64
2023-01-06T02:32:52.529Z,82.19
2023-01-06T02:35:39.888Z,81.83
2023-01-06T02:38:18.600Z,81.14
2023-01-06T02:41:02.243Z,81.02
2023-01-06T02:43:39.950Z,80.94
2023-01-06T02:46:14.569Z,80.05
2023-01-06T02:48:57.279Z,78.36
2023-01-06T02:51:33.369Z,79.32
2023-01-06T02:54:10.202Z,82.31
2023-01-06T02:56:43.956Z,82.66
2023-01-06T02:59:19.262Z,83.89
2023-01-06T03:01:49.608Z,84.62
2023-01-06T03:04:25.078Z,87.07
2023-01-06T03:06:56.236Z,87.46
2023-01-06T03:09:29.352Z,81.56
2023-01-06T03:11:57.629Z,83.68
2023-01-06T03:14:32.053Z,86.70
2023-01-06T03:17:00.882Z,84.68
2023-01-06T03:19:30.812Z,83.02
2023-01-06T03:21:59.965Z,81.23
2023-01-06T03:24:28.556Z,83.81
2023-01-06T03:26:57.033Z,85.00
2023-01-06T03:29:26.134Z,83.77
2023-01-06T03:32:03.034Z,83.64
2023-01-06T03:34:51.866Z,82.97
2023-01-06T03:37:27.631Z,82.33
2023-01-06T03:40:02.199Z,85.24
2023-01-06T03:42:54.885Z,85.12
2023-01-06T03:45:40.208Z,86.14
2023-01-06T03:48:15.469Z,89.29
2023-01-06T03:50:50.665Z,86.02
2023-01-06T03:53:26.588Z,82.46
2023-01-06T03:56:01.202Z,84.24
2023-01-06T03:58:30.971Z,85.76
2023-01-06T04:01:00.391Z,83.20
2023-01-06T04:03:28.819Z,83.29
2023-01-06T04:05:58.676Z,85.02
2023-01-06T04:08:27.504Z,85.74
2023-01-06T04:10:55.827Z,90.57
2023-01-06T04:13:23.056Z,89.46
2023-01-06T04:15:51.330Z,86.97
2023-01-06T04:18:19.636Z,84.79
2023-01-06T04:20:48.423Z,83.95
2023-01-06T04:23:18.141Z,83.20
2023-01-06T04:25:46.502Z,82.16
2023-01-06T04:28:14.782Z,81.51
2023-01-06T04:30:43.065Z,79.88
2023-01-06T04:33:11.617Z,79.30
2023-01-06T04:35:39.904Z,80.66
2023-01-06T04:38:08.256Z,82.52
2023-01-06T04:40:37.975Z,82.43
2023-01-06T04:43:06.357Z,84.00
2023-01-06T04:45:35.473Z,84.27
2023-01-06T04:48:03.951Z,85.08
2023-01-06T04:50:32.337Z,85.39
2023-01-06T04:53:00.642Z,92.03
2023-01-06T04:55:29.247Z,98.93
2023-01-06T04:57:58.891Z,100.00
2023-01-06T05:00:27.223Z,97.52
2023-01-06T05:02:55.588Z,93.05
2023-01-06T05:05:23.965Z,91.83
2023-01-06T05:07:55.635Z,93.12
2023-01-06T05:10:23.969Z,90.28
2023-01-06T05:12:52.317Z,95.31
2023-01-06T05:15:22.066Z,95.35
2023-01-06T05:17:50.355Z,94.82
2023-01-06T05:20:18.800Z,95.10
2023-01-06T05:22:47.107Z,95.69
2023-01-06T05:25:15.531Z,100.00
2023-01-06T05:27:43.797Z,100.00
2023-01-06T05:30:13.491Z,95.65
2023-01-06T05:32:43.110Z,100.00
2023-01-06T05:35:11.611Z,99.86
2023-01-06T05:37:39.900Z,99.49
2023-01-06T05:40:09.295Z,96.75
2023-01-06T05:42:37.635Z,91.82
2023-01-06T05:45:06.699Z,91.20
2023-01-06T05:47:34.961Z,93.53
2023-01-06T05:50:04.953Z,91.45
2023-01-06T05:52:33.300Z,87.93
2023-01-06T05:55:01.564Z,89.30
2023-01-06T05:57:29.872Z,90.54
2023-01-06T05:59:58.165Z,90.25
2023-01-06T06:02:26.683Z,89.34
2023-01-06T06:04:55.072Z,89.67
2023-01-06T06:07:24.856Z,96.27
2023-01-06T06:09:53.195Z,87.11
2023-01-06T06:12:21.509Z,86.22
2023-01-06T06:14:49.830Z,86.62
2023-01-06T06:17:18.128Z,87.06
2023-01-06T06:19:46.497Z,89.81
2023-01-06T06:22:14.854Z,97.90
2023-01-06T06:24:44.565Z,96.97
2023-01-06T06:27:12.867Z,94.16
2023-01-06T06:29:41.133Z,89.20
2023-01-06T06:32:09.396Z,88.59
2023-01-06T06:34:37.717Z,89.94
2023-01-06T06:37:05.954Z,86.66
2023-01-06T06:39:34.248Z,85.09
2023-01-06T06:42:03.963Z,85.13
2023-01-06T06:44:32.526Z,85.66
2023-01-06T06:47:00.829Z,89.83
2023-01-06T06:49:31.246Z,88.69
2023-01-06T06:51:59.629Z,89.91
2023-01-06T06:54:27.877Z,84.02
2023-01-06T06:56:57.166Z,81.92
2023-01-06T06:59:26.886Z,80.45
2023-01-06T07:01:57.767Z,75.83
2023-01-06T07:04:26.277Z,78.44
2023-01-06T07:06:54.878Z,80.83
2023-01-06T07:09:23.219Z,78.12
2023-01-06T07:11:51.471Z,72.58
2023-01-06T07:14:19.690Z,68.43
2023-01-06T07:16:49.405Z,65.06
2023-01-06T07:19:17.793Z,67.86
2023-01-06T07:21:46.118Z,70.24
2023-01-06T07:24:14.415Z,68.94
2023-01-06T07:26:42.711Z,67.55
2023-01-06T07:29:11.112Z,66.41
2023-01-06T07:31:39.496Z,64.74
2023-01-06T07:34:09.282Z,63.34
2023-01-06T07:36:37.662Z,62.45
2023-01-06T07:39:06.096Z,63.14
2023-01-06T07:41:34.377Z,63.35
2023-01-06T07:44:02.654Z,66.83
2023-01-06T07:46:31.037Z,66.94
2023-01-06T07:48:59.455Z,66.98
2023-01-06T07:51:29.236Z,65.43
2023-01-06T07:53:57.578Z,64.97
2023-01-06T07:56:25.937Z,64.98
2023-01-06T07:58:55.173Z,67.53
2023-01-06T08:01:23.579Z,66.27
2023-01-06T08:03:51.935Z,64.60
2023-01-06T08:06:20.215Z,63.06
2023-01-06T08:08:49.912Z,61.95
2023-01-06T08:11:18.200Z,59.94
2023-01-06T08:13:46.602Z,57.91
2023-01-06T08:16:15.359Z,57.86
2023-01-06T08:18:43.848Z,56.67
2023-01-06T08:21:12.761Z,56.93
2023-01-06T08:23:41.538Z,55.68
2023-01-06T08:26:13.773Z,55.87
2023-01-06T08:28:42.618Z,54.46
2023-01-06T08:31:12.326Z,53.12
2023-01-06T08:33:41.429Z,53.83
2023-01-06T08:36:13.025Z,52.15
2023-01-06T08:38:41.407Z,50.20
2023-01-06T08:41:11.608Z,48.54
2023-01-06T08:43:41.933Z,48.00
2023-01-06T08:46:13.568Z,47.18
2023-01-06T08:48:42.028Z,48.11
2023-01-06T08:51:13.747Z,46.84
2023-01-06T08:53:42.116Z,47.13
2023-01-06T08:56:14.852Z,43.62
2023-01-06T08:58:43.267Z,42.86
2023-01-06T09:01:17.694Z,44.36
2023-01-06T09:03:46.119Z,43.65
2023-01-06T09:06:14.647Z,43.64
2023-01-06T09:08:42.922Z,43.44
2023-01-06T09:11:13.628Z,45.19
2023-01-06T09:13:43.776Z,45.04
2023-01-06T09:16:13.591Z,44.08
2023-01-06T09:18:47.587Z,43.31
2023-01-06T09:21:15.949Z,43.42
2023-01-06T09:23:44.221Z,44.08
2023-01-06T09:26:12.934Z,43.77
2023-01-06T09:28:42.666Z,43.37
2023-01-06T09:31:11.760Z,42.99
2023-01-06T09:33:41.621Z,43.16
2023-01-06T09:36:10.109Z,42.41
2023-01-06T09:38:38.478Z,42.02
2023-01-06T09:41:23.974Z,42.78
2023-01-06T09:43:58.556Z,42.31
2023-01-06T09:46:32.060Z,39.90
2023-01-06T09:49:08.455Z,40.20
2023-01-06T09:51:38.018Z,39.76
2023-01-06T09:54:16.626Z,39.75
2023-01-06T09:56:48.466Z,40.31
2023-01-06T09:59:25.119Z,40.73
2023-01-06T10:01:55.337Z,40.11
2023-01-06T10:04:27.770Z,40.41
2023-01-06T10:07:07.218Z,39.81
2023-01-06T10:09:44.579Z,39.41
2023-01-06T10:12:24.527Z,39.75
2023-01-06T10:15:04.934Z,38.87
2023-01-06T10:17:54.904Z,37.17
2023-01-06T10:20:39.775Z,37.50
2023-01-06T10:23:25.339Z,37.52
2023-01-06T10:25:56.473Z,35.26
2023-01-06T10:28:30.562Z,34.46
2023-01-06T10:31:05.894Z,33.49
2023-01-06T10:33:38.795Z,34.12
2023-01-06T10:36:13.179Z,32.42
2023-01-06T10:38:45.152Z,30.76
2023-01-06T10:41:21.408Z,30.62
2023-01-06T10:43:49.780Z,31.07
2023-01-06T10:46:19.797Z,31.95
2023-01-06T10:48:50.601Z,32.21
2023-01-06T10:51:34.883Z,31.02
2023-01-06T10:54:07.934Z,34.15
2023-01-06T10:56:38.181Z,31.27
2023-01-06T10:59:11.663Z,30.23
2023-01-06T11:01:51.852Z,29.24
2023-01-06T11:04:21.671Z,26.30
2023-01-06T11:06:52.504Z,27.00
2023-01-06T11:09:28.323Z,27.29
2023-01-06T11:11:58.766Z,25.70
2023-01-06T11:14:31.067Z,26.16
2023-01-06T11:17:03.807Z,25.44
2023-01-06T11:19:38.334Z,25.36
2023-01-06T11:22:07.810Z,24.56
2023-01-06T11:24:51.468Z,24.40
2023-01-06T11:27:19.696Z,25.31
2023-01-06T11:29:49.555Z,25.44
2023-01-06T11:32:22.870Z,24.49
2023-01-06T11:34:55.663Z,24.09
2023-01-06T11:37:35.035Z,23.58
2023-01-06T11:40:11.438Z,23.27
2023-01-06T11:45:32.135Z,25.03
2023-01-06T11:48:02.090Z,24.71
2023-01-06T11:50:30.596Z,24.02
2023-01-06T11:53:03.860Z,24.24
2023-01-06T11:55:32.176Z,23.48
2023-01-06T11:58:05.502Z,23.89
2023-01-06T12:00:43.525Z,24.75
2023-01-06T12:03:23.185Z,23.69
2023-01-06T12:05:58.019Z,24.66
2023-01-06T12:08:31.876Z,24.94
2023-01-06T12:13:44.264Z,24.72
2023-01-06T12:16:23.687Z,24.32
2023-01-06T12:18:54.251Z,26.63
2023-01-06T12:21:29.050Z,24.91
2023-01-06T12:24:00.415Z,25.08
2023-01-06T12:26:29.509Z,24.73
2023-01-06T12:29:00.165Z,24.29
2023-01-06T12:31:36.587Z,24.62
2023-01-06T12:34:12.185Z,25.35
2023-01-06T12:36:46.513Z,24.83
2023-01-06T12:39:21.968Z,25.17
2023-01-06T12:41:54.765Z,24.58
2023-01-06T12:44:40.183Z,24.29
2023-01-06T12:47:16.553Z,25.34
2023-01-06T12:49:51.971Z,25.39
2023-01-06T12:52:26.431Z,25.70
2023-01-06T12:54:57.610Z,25.21
2023-01-06T12:57:39.605Z,25.47
2023-01-06T13:00:43.313Z,25.43
2023-01-06T13:03:50.094Z,27.05
2023-01-06T13:06:33.180Z,25.09
2023-01-06T13:09:14.922Z,25.55
2023-01-06T13:12:06.322Z,25.21
2023-01-06T13:14:42.664Z,24.89
2023-01-06T13:17:19.491Z,24.80
2023-01-06T13:19:52.654Z,25.77
2023-01-06T13:22:34.276Z,26.73
2023-01-06T13:25:28.198Z,27.25
2023-01-06T13:28:08.632Z,26.83
2023-01-06T13:31:10.073Z,26.69
2023-01-06T13:33:58.098Z,26.97
2023-01-06T13:36:44.251Z,28.61
2023-01-06T13:39:17.996Z,28.49
2023-01-06T13:41:50.497Z,28.14
2023-01-06T13:44:22.402Z,28.10
2023-01-06T13:46:53.934Z,28.14
2023-01-06T13:49:23.200Z,28.13
2023-01-06T13:51:52.094Z,27.75
2023-01-06T13:54:57.119Z,27.35
2023-01-06T13:57:31.872Z,28.17
2023-01-06T14:00:24.987Z,28.29
2023-01-06T14:05:56.474Z,28.87
2023-01-06T14:08:28.085Z,32.67
2023-01-06T14:11:03.233Z,31.59
2023-01-06T14:13:36.474Z,33.68
2023-01-06T14:16:10.494Z,35.66
2023-01-06T14:18:42.501Z,31.77
2023-01-06T14:21:27.724Z,33.33
2023-01-06T14:24:00.556Z,34.09
2023-01-06T14:26:54.811Z,35.10
2023-01-06T14:30:00.313Z,34.47
2023-01-06T14:33:14.457Z,37.01
2023-01-06T14:35:48.453Z,36.95
2023-01-06T14:38:25.495Z,36.48
2023-01-06T14:40:59.055Z,36.49
2023-01-06T14:43:42.128Z,37.35
2023-01-06T14:46:18.786Z,43.54
2023-01-06T14:48:53.278Z,37.27
2023-01-06T14:51:23.826Z,36.39
2023-01-06T14:54:00.216Z,37.72
2023-01-06T14:56:34.570Z,37.88
2023-01-06T14:59:10.882Z,40.43
2023-01-06T15:01:40.629Z,39.71
2023-01-06T15:04:23.235Z,40.96
2023-01-06T15:07:02.268Z,40.26
2023-01-06T15:09:30.809Z,41.43
2023-01-06T15:11:59.190Z,41.06
2023-01-06T15:14:29.703Z,41.42
2023-01-06T15:17:00.501Z,43.09
2023-01-06T15:19:29.263Z,41.74
2023-01-06T15:21:58.627Z,41.99
2023-01-06T15:24:32.362Z,46.24
2023-01-06T15:27:06.465Z,43.09
2023-01-06T15:29:35.314Z,42.27
2023-01-06T15:32:05.753Z,44.63
2023-01-06T15:34:37.196Z,43.61
2023-01-06T15:37:08.847Z,42.76
2023-01-06T15:39:40.980Z,42.94
2023-01-06T15:42:10.709Z,43.10
2023-01-06T15:44:40.349Z,50.54
2023-01-06T15:47:20.200Z,43.35
2023-01-06T15:49:53.593Z,44.30
2023-01-06T15:52:27.230Z,43.49
2023-01-06T15:54:59.828Z,44.09
2023-01-06T15:57:32.038Z,44.96
2023-01-06T16:00:02.940Z,46.05
2023-01-06T16:02:33.400Z,45.72
2023-01-06T16:05:02.608Z,46.54
2023-01-06T16:07:43.327Z,46.21
2023-01-06T16:10:32.389Z,46.07
2023-01-06T16:13:18.321Z,46.04
2023-01-06T16:15:48.189Z,46.33
2023-01-06T16:18:19.050Z,46.64
2023-01-06T16:20:47.389Z,47.48
2023-01-06T16:23:33.903Z,47.65
2023-01-06T16:26:13.890Z,48.36
2023-01-06T16:28:45.918Z,49.47
2023-01-06T16:31:16.525Z,49.22
2023-01-06T16:33:47.063Z,48.60
2023-01-06T16:36:17.259Z,47.73
2023-01-06T16:38:45.904Z,47.11
2023-01-06T16:41:18.644Z,48.70
2023-01-06T16:43:47.281Z,50.32
2023-01-06T16:46:21.978Z,51.29
2023-01-06T16:48:53.323Z,50.09
2023-01-06T16:51:22.813Z,51.39
2023-01-06T16:53:51.058Z,51.72
2023-01-06T16:56:23.519Z,52.24
2023-01-06T16:58:51.897Z,51.35
2023-01-06T17:01:22.501Z,52.76
2023-01-06T17:03:54.558Z,53.16
2023-01-06T17:06:24.457Z,54.47
2023-01-06T17:08:56.157Z,54.39
2023-01-06T17:11:29.535Z,55.17
2023-01-06T17:14:00.887Z,55.69
2023-01-06T17:16:34.329Z,56.21
2023-01-06T17:19:04.311Z,56.18
2023-01-06T17:21:36.791Z,55.87
2023-01-06T17:24:12.314Z,55.88
2023-01-06T17:26:43.693Z,55.96
2023-01-06T17:29:14.894Z,55.59
2023-01-06T17:31:46.914Z,53.92
2023-01-06T17:34:18.908Z,54.04
2023-01-06T17:36:48.827Z,54.39
2023-01-06T17:39:22.637Z,55.82
2023-01-06T17:41:59.868Z,60.58
2023-01-06T17:44:36.818Z,54.23
2023-01-06T17:47:13.282Z,55.17
2023-01-06T17:49:41.560Z,55.83
2023-01-06T17:52:17.705Z,55.71
2023-01-06T17:55:11.222Z,55.83
2023-01-06T17:57:46.981Z,55.91
2023-01-06T18:00:23.572Z,56.27
2023-01-06T18:02:56.597Z,56.60
2023-01-06T18:06:22.044Z,56.66
2023-01-06T18:08:54.740Z,56.32
2023-01-06T18:11:33.037Z,56.56
2023-01-06T18:14:18.588Z,56.18
2023-01-06T18:16:48.354Z,56.42
2023-01-06T18:19:28.515Z,60.56
2023-01-06T18:21:57.009Z,57.12
2023-01-06T18:24:30.872Z,59.26
2023-01-06T18:27:00.620Z,58.34
2023-01-06T18:29:36.895Z,59.49
2023-01-06T18:32:33.623Z,58.75
2023-01-06T18:35:03.471Z,58.60
2023-01-06T18:37:34.626Z,57.89
2023-01-06T18:40:04.726Z,59.14
2023-01-06T18:42:36.233Z,58.88
2023-01-06T18:45:19.317Z,58.17
2023-01-06T18:47:52.267Z,58.79
2023-01-06T18:50:33.249Z,58.98
2023-01-06T18:53:05.740Z,58.97
2023-01-06T18:55:39.715Z,59.14
2023-01-06T18:58:26.825Z,65.44
2023-01-06T19:00:58.780Z,59.19
2023-01-06T19:03:38.764Z,59.08
2023-01-06T19:06:34.364Z,58.57
2023-01-06T19:09:10.305Z,58.54
2023-01-06T19:11:38.700Z,62.86
2023-01-06T19:14:14.669Z,59.92
2023-01-06T19:16:50.674Z,61.54
2023-01-06T19:19:29.196Z,59.47
2023-01-06T19:22:07.978Z,59.88
2023-01-06T19:24:46.455Z,60.27
2023-01-06T19:27:39.239Z,60.36
2023-01-06T19:30:42.556Z,60.23
2023-01-06T19:33:38.226Z,59.29
2023-01-06T19:36:42.671Z,59.01
2023-01-06T19:39:33.984Z,58.92
2023-01-06T19:42:17.825Z,57.26
2023-01-06T19:44:48.303Z,56.43
2023-01-06T19:47:20.928Z,56.72
2023-01-06T19:49:53.371Z,56.23
2023-01-06T19:52:30.503Z,56.37
2023-01-06T19:55:12.980Z,56.56
2023-01-06T19:57:44.844Z,56.39
2023-01-06T20:00:25.394Z,58.50
2023-01-06T20:02:57.670Z,57.30
2023-01-06T20:05:29.035Z,56.13
2023-01-06T20:07:57.393Z,57.51
2023-01-06T20:10:25.729Z,61.16
2023-01-06T20:12:54.061Z,58.26
2023-01-06T20:15:22.321Z,57.92
2023-01-06T20:17:50.686Z,58.00
2023-01-06T20:20:19.093Z,57.72
2023-01-06T20:22:48.866Z,56.28
2023-01-06T20:25:17.563Z,57.82
2023-01-06T20:27:45.852Z,60.05
2023-01-06T20:30:14.290Z,59.85
2023-01-06T20:32:42.936Z,57.95
2023-01-06T20:35:12.580Z,57.26
2023-01-06T20:37:40.906Z,57.56
2023-01-06T20:40:11.715Z,57.95
2023-01-06T20:42:40.047Z,59.69
2023-01-06T20:45:09.214Z,59.98
2023-01-06T20:47:37.558Z,58.73
2023-01-06T20:50:07.660Z,61.38
2023-01-06T20:52:36.381Z,62.93
2023-01-06T20:55:04.856Z,61.92
2023-01-06T20:57:34.644Z,62.54
2023-01-06T21:00:02.949Z,60.42
2023-01-06T21:02:31.299Z,57.73
2023-01-06T21:04:59.633Z,57.98
2023-01-06T21:07:27.903Z,60.18
2023-01-06T21:09:56.221Z,61.25
2023-01-06T21:12:24.858Z,59.03
2023-01-06T21:14:54.537Z,58.46
2023-01-06T21:17:23.010Z,59.82
2023-01-06T21:19:51.353Z,59.17
2023-01-06T21:22:19.618Z,60.30
2023-01-06T21:24:47.960Z,57.80
2023-01-06T21:27:16.245Z,57.40
2023-01-06T21:29:44.647Z,57.47
2023-01-06T21:32:14.419Z,57.39
2023-01-06T21:34:42.771Z,57.88
2023-01-06T21:37:11.088Z,57.04
2023-01-06T21:39:39.413Z,62.67
2023-01-06T21:42:25.074Z,58.56
2023-01-06T21:44:53.338Z,60.15
2023-01-06T21:47:23.066Z,59.61
2023-01-06T21:49:51.470Z,62.43
2023-01-06T21:52:19.876Z,66.10
2023-01-06T21:54:48.229Z,61.75
2023-01-06T21:57:16.640Z,61.88
2023-01-06T21:59:45.420Z,64.42
2023-01-06T22:02:15.920Z,65.23
2023-01-06T22:04:45.694Z,62.38
2023-01-06T22:07:15.185Z,62.07
2023-01-06T22:09:45.830Z,63.77
2023-01-06T22:12:17.085Z,64.61
2023-01-06T22:14:45.816Z,63.19
2023-01-06T22:17:14.573Z,61.93
2023-01-06T22:19:46.335Z,62.59
2023-01-06T22:22:15.330Z,61.54
2023-01-06T22:24:43.655Z,61.82
2023-01-06T22:27:11.865Z,63.65
2023-01-06T22:29:40.209Z,62.40
2023-01-06T22:32:08.494Z,61.19
2023-01-06T22:34:37.426Z,64.04
2023-01-06T22:37:07.199Z,66.17
2023-01-06T22:39:35.442Z,67.38
2023-01-06T22:42:13.001Z,67.32
2023-01-06T22:44:41.341Z,66.57
2023-01-06T22:47:09.604Z,64.35
2023-01-06T22:49:37.878Z,63.65
2023-01-06T22:52:07.705Z,62.63
2023-01-06T22:54:35.959Z,63.10
2023-01-06T22:57:04.224Z,62.72
2023-01-06T22:59:32.577Z,64.21
2023-01-06T23:02:01.084Z,65.53
2023-01-06T23:04:29.421Z,71.06
2023-01-06T23:06:57.748Z,68.04
2023-01-06T23:09:27.606Z,65.84
2023-01-06T23:11:55.991Z,65.04
2023-01-06T23:14:24.340Z,64.45
2023-01-06T23:16:52.537Z,63.23
2023-01-06T23:19:20.859Z,62.00
2023-01-06T23:21:49.158Z,62.26
2023-01-06T23:24:17.433Z,62.08
2023-01-06T23:26:48.695Z,62.01
2023-01-06T23:29:17.025Z,62.15
2023-01-06T23:31:46.842Z,62.04
2023-01-06T23:34:18.083Z,60.94
2023-01-06T23:36:46.943Z,60.86
2023-01-06T23:39:17.024Z,61.58
2023-01-06T23:41:46.762Z,62.00
2023-01-06T23:44:16.784Z,61.52
2023-01-06T23:46:46.019Z,61.43
2023-01-06T23:49:15.951Z,62.11
2023-01-06T23:51:44.884Z,61.73
2023-01-06T23:54:15.300Z,61.47
2023-01-06T23:56:43.618Z,61.74
2023-01-06T23:59:13.843Z,62.93
